ICAO code: LHPR | IATA code: QGY | SITA: QGYAPXH | AFTN: LHPRZPZX

Időjárási adatok

METAR LHPR 170315Z AUTO 12011KT 7000 -RA NCD 04/01 Q1020=
TAF LHPR 170200Z NIL=
Eső, nem ónos, gyenge
2020-02-17 03:20:00 UTC
Hőmérséklet
3.5 °C
 
Harmatpont
1.0 °C
 
Rel. páratartalom
84%
 
QNH
1020.4 hPa
 
Szélsebesség
4.5 m/s
Max
5.9 m/s
Szélirány
120°
 
Csapadék (1 óra)
0.0 mm
 
Látótávolság
6305 m
 
RVR
>1500 m RWY30
 
1. felhőréteg mennyisége
0 octa
 
1. felhőréteg alapja
m